sensor_id;sensor_type;location;lat;lon;timestamp;P1;durP1;ratioP1;P2;durP2;ratioP2
31384;SDS011;18016;49.788;8.742;2023-03-04T00:01:42;29.83;;;15.48;;
31384;SDS011;18016;49.788;8.742;2023-03-04T00:04:08;27.95;;;14.20;;
31384;SDS011;18016;49.788;8.742;2023-03-04T00:06:33;27.55;;;13.77;;
31384;SDS011;18016;49.788;8.742;2023-03-04T00:08:58;30.23;;;14.53;;
31384;SDS011;18016;49.788;8.742;2023-03-04T00:11:23;38.93;;;16.60;;
31384;SDS011;18016;49.788;8.742;2023-03-04T00:13:48;36.30;;;17.95;;
31384;SDS011;18016;49.788;8.742;2023-03-04T00:16:14;33.22;;;15.25;;
31384;SDS011;18016;49.788;8.742;2023-03-04T00:18:39;43.72;;;19.55;;
31384;SDS011;18016;49.788;8.742;2023-03-04T00:21:04;44.35;;;21.58;;
31384;SDS011;18016;49.788;8.742;2023-03-04T00:23:29;34.53;;;16.48;;
31384;SDS011;18016;49.788;8.742;2023-03-04T00:25:55;30.20;;;15.27;;
31384;SDS011;18016;49.788;8.742;2023-03-04T00:28:20;46.37;;;20.03;;
31384;SDS011;18016;49.788;8.742;2023-03-04T00:30:45;33.97;;;15.27;;
31384;SDS011;18016;49.788;8.742;2023-03-04T00:33:10;43.75;;;20.50;;
31384;SDS011;18016;49.788;8.742;2023-03-04T00:35:35;32.57;;;14.40;;
31384;SDS011;18016;49.788;8.742;2023-03-04T00:38:00;29.83;;;14.70;;
31384;SDS011;18016;49.788;8.742;2023-03-04T00:40:26;44.37;;;16.80;;
31384;SDS011;18016;49.788;8.742;2023-03-04T00:42:51;36.58;;;16.20;;
31384;SDS011;18016;49.788;8.742;2023-03-04T00:45:16;38.43;;;17.47;;
31384;SDS011;18016;49.788;8.742;2023-03-04T00:47:41;50.97;;;21.70;;
31384;SDS011;18016;49.788;8.742;2023-03-04T00:50:07;44.47;;;19.42;;
31384;SDS011;18016;49.788;8.742;2023-03-04T00:52:32;42.95;;;19.83;;
31384;SDS011;18016;49.788;8.742;2023-03-04T00:54:57;38.50;;;18.47;;
31384;SDS011;18016;49.788;8.742;2023-03-04T00:57:22;39.73;;;17.67;;
31384;SDS011;18016;49.788;8.742;2023-03-04T00:59:47;36.58;;;16.10;;
31384;SDS011;18016;49.788;8.742;2023-03-04T01:02:13;41.45;;;15.98;;
31384;SDS011;18016;49.788;8.742;2023-03-04T01:04:38;37.00;;;16.60;;
31384;SDS011;18016;49.788;8.742;2023-03-04T01:07:03;40.17;;;16.15;;
31384;SDS011;18016;49.788;8.742;2023-03-04T01:09:29;32.40;;;14.35;;
31384;SDS011;18016;49.788;8.742;2023-03-04T01:11:54;37.92;;;15.85;;
31384;SDS011;18016;49.788;8.742;2023-03-04T01:14:19;38.05;;;15.68;;
31384;SDS011;18016;49.788;8.742;2023-03-04T01:16:44;32.38;;;14.93;;
31384;SDS011;18016;49.788;8.742;2023-03-04T01:19:10;38.38;;;15.95;;
31384;SDS011;18016;49.788;8.742;2023-03-04T01:21:35;38.80;;;16.15;;
31384;SDS011;18016;49.788;8.742;2023-03-04T01:24:00;41.45;;;16.05;;
31384;SDS011;18016;49.788;8.742;2023-03-04T01:26:25;37.25;;;14.98;;
31384;SDS011;18016;49.788;8.742;2023-03-04T01:28:51;37.15;;;15.18;;
31384;SDS011;18016;49.788;8.742;2023-03-04T01:31:16;34.47;;;15.07;;
31384;SDS011;18016;49.788;8.742;2023-03-04T01:33:41;32.00;;;13.65;;
31384;SDS011;18016;49.788;8.742;2023-03-04T01:36:06;32.60;;;14.95;;
31384;SDS011;18016;49.788;8.742;2023-03-04T01:38:32;35.40;;;14.25;;
31384;SDS011;18016;49.788;8.742;2023-03-04T01:40:57;30.63;;;14.07;;
31384;SDS011;18016;49.788;8.742;2023-03-04T01:43:31;32.42;;;14.43;;
31384;SDS011;18016;49.788;8.742;2023-03-04T01:48:27;37.63;;;14.10;;
31384;SDS011;18016;49.788;8.742;2023-03-04T01:50:52;33.92;;;14.13;;
31384;SDS011;18016;49.788;8.742;2023-03-04T01:53:21;39.08;;;18.83;;
31384;SDS011;18016;49.788;8.742;2023-03-04T01:55:48;34.80;;;15.50;;
31384;SDS011;18016;49.788;8.742;2023-03-04T01:58:13;30.77;;;14.70;;
31384;SDS011;18016;49.788;8.742;2023-03-04T02:00:39;32.22;;;14.13;;
31384;SDS011;18016;49.788;8.742;2023-03-04T02:03:13;39.05;;;15.07;;
31384;SDS011;18016;49.788;8.742;2023-03-04T02:05:40;36.90;;;13.90;;
31384;SDS011;18016;49.788;8.742;2023-03-04T02:08:06;41.10;;;16.55;;
31384;SDS011;18016;49.788;8.742;2023-03-04T02:10:32;36.50;;;14.18;;
31384;SDS011;18016;49.788;8.742;2023-03-04T02:12:58;34.83;;;14.38;;
31384;SDS011;18016;49.788;8.742;2023-03-04T02:15:24;31.70;;;15.13;;
31384;SDS011;18016;49.788;8.742;2023-03-04T02:17:49;34.53;;;14.80;;
31384;SDS011;18016;49.788;8.742;2023-03-04T02:20:20;34.28;;;14.15;;
31384;SDS011;18016;49.788;8.742;2023-03-04T02:22:50;33.60;;;14.00;;
31384;SDS011;18016;49.788;8.742;2023-03-04T02:25:21;36.25;;;14.68;;
31384;SDS011;18016;49.788;8.742;2023-03-04T02:27:47;31.95;;;14.27;;
31384;SDS011;18016;49.788;8.742;2023-03-04T02:30:18;32.47;;;14.80;;
31384;SDS011;18016;49.788;8.742;2023-03-04T02:32:43;36.40;;;15.82;;
31384;SDS011;18016;49.788;8.742;2023-03-04T02:35:13;35.47;;;15.85;;
31384;SDS011;18016;49.788;8.742;2023-03-04T02:37:40;38.72;;;15.50;;
31384;SDS011;18016;49.788;8.742;2023-03-04T02:40:05;33.83;;;15.05;;
31384;SDS011;18016;49.788;8.742;2023-03-04T02:42:31;32.92;;;15.63;;
31384;SDS011;18016;49.788;8.742;2023-03-04T02:44:59;33.85;;;14.85;;
31384;SDS011;18016;49.788;8.742;2023-03-04T02:47:25;32.75;;;15.02;;
31384;SDS011;18016;49.788;8.742;2023-03-04T02:49:50;33.90;;;14.93;;
31384;SDS011;18016;49.788;8.742;2023-03-04T02:52:19;34.03;;;14.80;;
31384;SDS011;18016;49.788;8.742;2023-03-04T02:54:46;33.85;;;14.80;;
31384;SDS011;18016;49.788;8.742;2023-03-04T02:57:12;33.63;;;15.82;;
31384;SDS011;18016;49.788;8.742;2023-03-04T02:59:38;31.75;;;15.45;;
31384;SDS011;18016;49.788;8.742;2023-03-04T03:02:03;33.83;;;16.13;;
31384;SDS011;18016;49.788;8.742;2023-03-04T03:04:28;33.70;;;15.20;;
31384;SDS011;18016;49.788;8.742;2023-03-04T03:06:54;39.45;;;14.90;;
31384;SDS011;18016;49.788;8.742;2023-03-04T03:09:19;38.75;;;16.48;;
31384;SDS011;18016;49.788;8.742;2023-03-04T03:11:44;38.08;;;18.88;;
31384;SDS011;18016;49.788;8.742;2023-03-04T03:14:09;37.92;;;17.38;;
31384;SDS011;18016;49.788;8.742;2023-03-04T03:16:35;39.60;;;17.83;;
31384;SDS011;18016;49.788;8.742;2023-03-04T03:19:00;39.90;;;18.65;;
31384;SDS011;18016;49.788;8.742;2023-03-04T03:21:25;33.78;;;15.55;;
31384;SDS011;18016;49.788;8.742;2023-03-04T03:23:50;37.08;;;15.05;;
31384;SDS011;18016;49.788;8.742;2023-03-04T03:26:16;34.88;;;16.67;;
31384;SDS011;18016;49.788;8.742;2023-03-04T03:28:41;36.38;;;16.73;;
31384;SDS011;18016;49.788;8.742;2023-03-04T03:31:06;31.38;;;14.93;;
31384;SDS011;18016;49.788;8.742;2023-03-04T03:33:32;33.47;;;16.15;;
31384;SDS011;18016;49.788;8.742;2023-03-04T03:35:57;40.58;;;18.15;;
31384;SDS011;18016;49.788;8.742;2023-03-04T03:38:24;77.85;;;30.15;;
31384;SDS011;18016;49.788;8.742;2023-03-04T03:40:49;45.17;;;20.92;;
31384;SDS011;18016;49.788;8.742;2023-03-04T03:43:14;63.00;;;26.45;;
31384;SDS011;18016;49.788;8.742;2023-03-04T03:45:39;50.03;;;18.38;;
31384;SDS011;18016;49.788;8.742;2023-03-04T03:48:05;62.47;;;25.17;;
31384;SDS011;18016;49.788;8.742;2023-03-04T03:50:30;43.20;;;18.05;;
31384;SDS011;18016;49.788;8.742;2023-03-04T03:52:55;58.22;;;24.58;;
31384;SDS011;18016;49.788;8.742;2023-03-04T03:55:20;50.22;;;22.05;;
31384;SDS011;18016;49.788;8.742;2023-03-04T03:57:46;53.42;;;21.55;;
31384;SDS011;18016;49.788;8.742;2023-03-04T04:00:11;56.53;;;23.42;;
31384;SDS011;18016;49.788;8.742;2023-03-04T04:02:37;61.13;;;26.42;;
31384;SDS011;18016;49.788;8.742;2023-03-04T04:05:02;39.75;;;18.50;;
31384;SDS011;18016;49.788;8.742;2023-03-04T04:07:27;33.65;;;16.48;;
31384;SDS011;18016;49.788;8.742;2023-03-04T04:09:52;93.90;;;42.53;;
31384;SDS011;18016;49.788;8.742;2023-03-04T04:12:18;106.60;;;43.55;;
31384;SDS011;18016;49.788;8.742;2023-03-04T04:14:43;66.97;;;28.95;;
31384;SDS011;18016;49.788;8.742;2023-03-04T04:17:09;59.63;;;25.55;;
31384;SDS011;18016;49.788;8.742;2023-03-04T04:19:34;42.67;;;18.27;;
31384;SDS011;18016;49.788;8.742;2023-03-04T04:22:00;57.75;;;25.88;;
31384;SDS011;18016;49.788;8.742;2023-03-04T04:24:25;63.25;;;27.52;;
31384;SDS011;18016;49.788;8.742;2023-03-04T04:26:50;47.78;;;20.77;;
31384;SDS011;18016;49.788;8.742;2023-03-04T04:29:16;44.88;;;20.05;;
31384;SDS011;18016;49.788;8.742;2023-03-04T04:31:41;45.20;;;19.70;;
31384;SDS011;18016;49.788;8.742;2023-03-04T04:34:06;47.22;;;19.35;;
31384;SDS011;18016;49.788;8.742;2023-03-04T04:36:31;50.90;;;22.92;;
31384;SDS011;18016;49.788;8.742;2023-03-04T04:38:57;45.07;;;20.43;;
31384;SDS011;18016;49.788;8.742;2023-03-04T04:41:23;38.93;;;19.00;;
31384;SDS011;18016;49.788;8.742;2023-03-04T04:43:49;46.33;;;20.05;;
31384;SDS011;18016;49.788;8.742;2023-03-04T04:46:14;40.70;;;19.25;;
31384;SDS011;18016;49.788;8.742;2023-03-04T04:48:40;40.30;;;18.67;;
31384;SDS011;18016;49.788;8.742;2023-03-04T04:51:05;36.10;;;18.20;;
31384;SDS011;18016;49.788;8.742;2023-03-04T04:53:30;33.47;;;16.88;;
31384;SDS011;18016;49.788;8.742;2023-03-04T04:55:56;39.50;;;18.13;;
31384;SDS011;18016;49.788;8.742;2023-03-04T04:58:21;40.15;;;19.23;;
31384;SDS011;18016;49.788;8.742;2023-03-04T05:00:46;46.80;;;21.02;;
31384;SDS011;18016;49.788;8.742;2023-03-04T05:03:12;37.90;;;18.48;;
31384;SDS011;18016;49.788;8.742;2023-03-04T05:05:37;43.35;;;19.92;;
31384;SDS011;18016;49.788;8.742;2023-03-04T05:08:02;58.83;;;21.38;;
31384;SDS011;18016;49.788;8.742;2023-03-04T05:10:27;56.10;;;21.08;;
31384;SDS011;18016;49.788;8.742;2023-03-04T05:12:53;43.97;;;20.07;;
31384;SDS011;18016;49.788;8.742;2023-03-04T05:15:18;34.42;;;18.00;;
31384;SDS011;18016;49.788;8.742;2023-03-04T05:17:43;46.00;;;19.63;;
31384;SDS011;18016;49.788;8.742;2023-03-04T05:20:08;39.42;;;19.05;;
31384;SDS011;18016;49.788;8.742;2023-03-04T05:22:34;47.63;;;21.60;;
31384;SDS011;18016;49.788;8.742;2023-03-04T05:24:59;49.33;;;22.75;;
31384;SDS011;18016;49.788;8.742;2023-03-04T05:27:25;54.72;;;23.55;;
31384;SDS011;18016;49.788;8.742;2023-03-04T05:29:50;47.07;;;20.33;;
31384;SDS011;18016;49.788;8.742;2023-03-04T05:32:15;49.38;;;21.40;;
31384;SDS011;18016;49.788;8.742;2023-03-04T05:34:40;44.20;;;19.77;;
31384;SDS011;18016;49.788;8.742;2023-03-04T05:37:05;40.97;;;19.07;;
31384;SDS011;18016;49.788;8.742;2023-03-04T05:39:31;46.60;;;20.60;;
31384;SDS011;18016;49.788;8.742;2023-03-04T05:41:56;49.60;;;21.90;;
31384;SDS011;18016;49.788;8.742;2023-03-04T05:44:21;53.95;;;21.73;;
31384;SDS011;18016;49.788;8.742;2023-03-04T05:46:46;51.03;;;23.13;;
31384;SDS011;18016;49.788;8.742;2023-03-04T05:49:12;48.38;;;21.83;;
31384;SDS011;18016;49.788;8.742;2023-03-04T05:51:37;47.50;;;21.25;;
31384;SDS011;18016;49.788;8.742;2023-03-04T05:54:02;46.28;;;20.13;;
31384;SDS011;18016;49.788;8.742;2023-03-04T05:56:27;48.67;;;22.80;;
31384;SDS011;18016;49.788;8.742;2023-03-04T05:58:55;45.67;;;22.42;;
31384;SDS011;18016;49.788;8.742;2023-03-04T06:01:21;48.40;;;21.27;;
31384;SDS011;18016;49.788;8.742;2023-03-04T06:03:46;42.05;;;20.42;;
31384;SDS011;18016;49.788;8.742;2023-03-04T06:06:13;58.17;;;22.85;;
31384;SDS011;18016;49.788;8.742;2023-03-04T06:08:38;52.45;;;21.58;;
31384;SDS011;18016;49.788;8.742;2023-03-04T06:11:03;39.92;;;21.05;;
31384;SDS011;18016;49.788;8.742;2023-03-04T06:13:29;47.35;;;21.58;;
31384;SDS011;18016;49.788;8.742;2023-03-04T06:15:55;45.10;;;19.85;;
31384;SDS011;18016;49.788;8.742;2023-03-04T06:18:21;42.35;;;20.80;;
31384;SDS011;18016;49.788;8.742;2023-03-04T06:20:46;46.08;;;22.38;;
31384;SDS011;18016;49.788;8.742;2023-03-04T06:23:11;46.80;;;22.10;;
31384;SDS011;18016;49.788;8.742;2023-03-04T06:25:36;42.30;;;21.05;;
31384;SDS011;18016;49.788;8.742;2023-03-04T06:28:02;45.38;;;21.00;;
31384;SDS011;18016;49.788;8.742;2023-03-04T06:30:27;47.60;;;21.93;;
31384;SDS011;18016;49.788;8.742;2023-03-04T06:32:52;46.40;;;21.85;;
31384;SDS011;18016;49.788;8.742;2023-03-04T06:35:25;45.83;;;21.67;;
31384;SDS011;18016;49.788;8.742;2023-03-04T06:37:50;48.58;;;22.92;;
31384;SDS011;18016;49.788;8.742;2023-03-04T06:40:15;53.38;;;24.20;;
31384;SDS011;18016;49.788;8.742;2023-03-04T06:42:44;51.13;;;22.75;;
31384;SDS011;18016;49.788;8.742;2023-03-04T06:45:12;51.30;;;22.55;;
31384;SDS011;18016;49.788;8.742;2023-03-04T06:47:40;46.47;;;22.08;;
31384;SDS011;18016;49.788;8.742;2023-03-04T06:50:09;47.70;;;21.85;;
31384;SDS011;18016;49.788;8.742;2023-03-04T06:52:43;43.58;;;21.05;;
31384;SDS011;18016;49.788;8.742;2023-03-04T06:55:28;46.65;;;22.10;;
31384;SDS011;18016;49.788;8.742;2023-03-04T07:02:49;45.92;;;20.77;;
31384;SDS011;18016;49.788;8.742;2023-03-04T07:05:14;55.35;;;24.35;;
31384;SDS011;18016;49.788;8.742;2023-03-04T07:07:41;54.30;;;23.92;;
31384;SDS011;18016;49.788;8.742;2023-03-04T07:10:06;48.55;;;22.45;;
31384;SDS011;18016;49.788;8.742;2023-03-04T07:12:40;47.13;;;21.20;;
31384;SDS011;18016;49.788;8.742;2023-03-04T07:18:06;48.53;;;22.35;;
31384;SDS011;18016;49.788;8.742;2023-03-04T07:20:43;52.00;;;24.17;;
31384;SDS011;18016;49.788;8.742;2023-03-04T07:23:15;45.90;;;23.13;;
31384;SDS011;18016;49.788;8.742;2023-03-04T07:25:49;47.55;;;22.73;;
31384;SDS011;18016;49.788;8.742;2023-03-04T07:28:15;51.20;;;23.52;;
31384;SDS011;18016;49.788;8.742;2023-03-04T07:34:06;44.55;;;21.50;;
31384;SDS011;18016;49.788;8.742;2023-03-04T07:39:32;59.42;;;25.13;;
31384;SDS011;18016;49.788;8.742;2023-03-04T07:42:04;53.28;;;25.75;;
31384;SDS011;18016;49.788;8.742;2023-03-04T07:44:50;56.25;;;27.17;;
31384;SDS011;18016;49.788;8.742;2023-03-04T07:56:56;50.17;;;25.05;;
31384;SDS011;18016;49.788;8.742;2023-03-04T08:02:35;44.55;;;24.48;;
31384;SDS011;18016;49.788;8.742;2023-03-04T08:05:00;49.00;;;24.70;;
31384;SDS011;18016;49.788;8.742;2023-03-04T08:10:15;48.22;;;24.50;;
31384;SDS011;18016;49.788;8.742;2023-03-04T08:15:42;44.90;;;25.30;;
31384;SDS011;18016;49.788;8.742;2023-03-04T08:18:10;46.40;;;24.98;;
31384;SDS011;18016;49.788;8.742;2023-03-04T08:21:26;45.95;;;23.63;;
31384;SDS011;18016;49.788;8.742;2023-03-04T08:24:23;36.50;;;21.08;;
31384;SDS011;18016;49.788;8.742;2023-03-04T08:27:06;37.38;;;22.45;;
31384;SDS011;18016;49.788;8.742;2023-03-04T08:29:32;38.00;;;22.60;;
31384;SDS011;18016;49.788;8.742;2023-03-04T08:32:06;34.53;;;19.45;;
31384;SDS011;18016;49.788;8.742;2023-03-04T08:43:58;43.28;;;22.63;;
31384;SDS011;18016;49.788;8.742;2023-03-04T08:46:52;37.42;;;22.50;;
31384;SDS011;18016;49.788;8.742;2023-03-04T08:49:17;37.15;;;21.00;;
31384;SDS011;18016;49.788;8.742;2023-03-04T08:52:02;36.55;;;20.52;;
31384;SDS011;18016;49.788;8.742;2023-03-04T08:54:46;37.97;;;20.25;;
31384;SDS011;18016;49.788;8.742;2023-03-04T08:57:14;36.22;;;21.45;;
31384;SDS011;18016;49.788;8.742;2023-03-04T09:02:34;39.45;;;22.25;;
31384;SDS011;18016;49.788;8.742;2023-03-04T09:05:02;40.42;;;21.67;;
31384;SDS011;18016;49.788;8.742;2023-03-04T09:07:36;38.85;;;21.45;;
31384;SDS011;18016;49.788;8.742;2023-03-04T09:10:01;38.65;;;21.25;;
31384;SDS011;18016;49.788;8.742;2023-03-04T09:12:35;40.38;;;20.52;;
31384;SDS011;18016;49.788;8.742;2023-03-04T09:15:00;35.60;;;20.33;;
31384;SDS011;18016;49.788;8.742;2023-03-04T09:17:27;39.30;;;19.98;;
31384;SDS011;18016;49.788;8.742;2023-03-04T09:19:52;34.78;;;18.98;;
31384;SDS011;18016;49.788;8.742;2023-03-04T09:22:17;34.97;;;19.30;;
31384;SDS011;18016;49.788;8.742;2023-03-04T09:24:43;43.72;;;21.50;;
31384;SDS011;18016;49.788;8.742;2023-03-04T09:27:08;44.05;;;20.98;;
31384;SDS011;18016;49.788;8.742;2023-03-04T09:29:33;41.38;;;21.35;;
31384;SDS011;18016;49.788;8.742;2023-03-04T09:31:58;38.13;;;20.30;;
31384;SDS011;18016;49.788;8.742;2023-03-04T09:34:24;35.75;;;18.17;;
31384;SDS011;18016;49.788;8.742;2023-03-04T09:36:49;36.10;;;19.00;;
31384;SDS011;18016;49.788;8.742;2023-03-04T09:39:14;39.67;;;21.13;;
31384;SDS011;18016;49.788;8.742;2023-03-04T09:41:43;36.85;;;19.20;;
31384;SDS011;18016;49.788;8.742;2023-03-04T09:46:47;48.20;;;22.80;;
31384;SDS011;18016;49.788;8.742;2023-03-04T09:49:13;42.55;;;21.80;;
31384;SDS011;18016;49.788;8.742;2023-03-04T09:54:31;40.45;;;20.23;;
31384;SDS011;18016;49.788;8.742;2023-03-04T09:56:59;38.03;;;20.48;;
31384;SDS011;18016;49.788;8.742;2023-03-04T09:59:31;38.05;;;20.67;;
31384;SDS011;18016;49.788;8.742;2023-03-04T10:01:59;38.35;;;18.70;;
31384;SDS011;18016;49.788;8.742;2023-03-04T10:06:53;43.35;;;20.20;;
31384;SDS011;18016;49.788;8.742;2023-03-04T10:09:25;39.70;;;19.20;;
31384;SDS011;18016;49.788;8.742;2023-03-04T10:16:53;37.67;;;19.30;;
31384;SDS011;18016;49.788;8.742;2023-03-04T10:21:48;43.05;;;22.13;;
31384;SDS011;18016;49.788;8.742;2023-03-04T10:24:16;32.25;;;17.00;;
31384;SDS011;18016;49.788;8.742;2023-03-04T10:26:48;36.70;;;15.82;;
31384;SDS011;18016;49.788;8.742;2023-03-04T10:29:16;35.38;;;17.35;;
31384;SDS011;18016;49.788;8.742;2023-03-04T10:31:41;36.70;;;17.35;;
31384;SDS011;18016;49.788;8.742;2023-03-04T10:34:08;39.53;;;18.30;;
31384;SDS011;18016;49.788;8.742;2023-03-04T10:36:43;36.80;;;18.10;;
31384;SDS011;18016;49.788;8.742;2023-03-04T10:39:32;40.25;;;17.77;;
31384;SDS011;18016;49.788;8.742;2023-03-04T10:42:00;45.77;;;17.37;;
31384;SDS011;18016;49.788;8.742;2023-03-04T10:44:32;48.33;;;19.80;;
31384;SDS011;18016;49.788;8.742;2023-03-04T10:47:01;52.10;;;21.05;;
31384;SDS011;18016;49.788;8.742;2023-03-04T10:49:27;46.05;;;25.83;;
31384;SDS011;18016;49.788;8.742;2023-03-04T10:51:56;32.80;;;17.55;;
31384;SDS011;18016;49.788;8.742;2023-03-04T10:54:45;41.53;;;18.83;;
31384;SDS011;18016;49.788;8.742;2023-03-04T10:57:13;37.17;;;16.25;;
31384;SDS011;18016;49.788;8.742;2023-03-04T10:59:41;34.80;;;13.77;;
31384;SDS011;18016;49.788;8.742;2023-03-04T11:04:38;45.35;;;15.85;;
31384;SDS011;18016;49.788;8.742;2023-03-04T11:07:09;31.15;;;15.77;;
31384;SDS011;18016;49.788;8.742;2023-03-04T11:09:35;34.35;;;15.18;;
31384;SDS011;18016;49.788;8.742;2023-03-04T11:12:01;34.80;;;15.32;;
31384;SDS011;18016;49.788;8.742;2023-03-04T11:14:36;36.80;;;13.27;;
31384;SDS011;18016;49.788;8.742;2023-03-04T11:17:15;33.85;;;13.68;;
31384;SDS011;18016;49.788;8.742;2023-03-04T11:19:41;31.70;;;14.00;;
31384;SDS011;18016;49.788;8.742;2023-03-04T11:22:09;26.60;;;12.77;;
31384;SDS011;18016;49.788;8.742;2023-03-04T11:24:37;30.48;;;13.10;;
31384;SDS011;18016;49.788;8.742;2023-03-04T11:29:37;25.38;;;13.65;;
31384;SDS011;18016;49.788;8.742;2023-03-04T11:32:06;38.25;;;14.40;;
31384;SDS011;18016;49.788;8.742;2023-03-04T11:34:37;33.60;;;15.88;;
31384;SDS011;18016;49.788;8.742;2023-03-04T11:37:21;32.03;;;13.27;;
31384;SDS011;18016;49.788;8.742;2023-03-04T11:44:41;36.05;;;13.75;;
31384;SDS011;18016;49.788;8.742;2023-03-04T11:47:13;36.55;;;13.63;;
31384;SDS011;18016;49.788;8.742;2023-03-04T11:50:27;41.00;;;13.05;;
31384;SDS011;18016;49.788;8.742;2023-03-04T12:00:21;38.05;;;13.25;;
31384;SDS011;18016;49.788;8.742;2023-03-04T12:10:24;34.20;;;14.40;;
31384;SDS011;18016;49.788;8.742;2023-03-04T12:15:43;37.38;;;14.27;;
31384;SDS011;18016;49.788;8.742;2023-03-04T12:20:48;33.20;;;13.15;;
31384;SDS011;18016;49.788;8.742;2023-03-04T12:25:49;47.08;;;15.18;;
31384;SDS011;18016;49.788;8.742;2023-03-04T12:38:30;35.80;;;14.45;;
31384;SDS011;18016;49.788;8.742;2023-03-04T12:43:31;36.45;;;16.42;;
31384;SDS011;18016;49.788;8.742;2023-03-04T12:50:58;37.65;;;15.00;;
31384;SDS011;18016;49.788;8.742;2023-03-04T12:53:43;41.33;;;15.65;;
31384;SDS011;18016;49.788;8.742;2023-03-04T12:56:21;46.28;;;17.80;;
31384;SDS011;18016;49.788;8.742;2023-03-04T12:58:47;47.55;;;17.60;;
31384;SDS011;18016;49.788;8.742;2023-03-04T13:01:24;42.58;;;18.00;;
31384;SDS011;18016;49.788;8.742;2023-03-04T13:08:52;42.20;;;16.77;;
31384;SDS011;18016;49.788;8.742;2023-03-04T13:14:21;45.85;;;17.55;;
31384;SDS011;18016;49.788;8.742;2023-03-04T13:16:47;42.85;;;16.25;;
31384;SDS011;18016;49.788;8.742;2023-03-04T13:21:56;45.65;;;17.85;;
31384;SDS011;18016;49.788;8.742;2023-03-04T13:29:49;38.42;;;17.58;;
31384;SDS011;18016;49.788;8.742;2023-03-04T13:32:24;36.73;;;16.87;;
31384;SDS011;18016;49.788;8.742;2023-03-04T13:34:58;43.03;;;17.70;;
31384;SDS011;18016;49.788;8.742;2023-03-04T13:37:28;41.17;;;18.17;;
31384;SDS011;18016;49.788;8.742;2023-03-04T13:43:17;45.17;;;18.20;;
31384;SDS011;18016;49.788;8.742;2023-03-04T13:45:43;41.57;;;16.47;;
31384;SDS011;18016;49.788;8.742;2023-03-04T13:48:21;38.75;;;16.63;;
31384;SDS011;18016;49.788;8.742;2023-03-04T13:50:47;37.88;;;16.23;;
31384;SDS011;18016;49.788;8.742;2023-03-04T13:53:33;38.80;;;15.90;;
31384;SDS011;18016;49.788;8.742;2023-03-04T13:56:47;39.65;;;15.50;;
31384;SDS011;18016;49.788;8.742;2023-03-04T13:58:52;46.53;;;17.52;;
31384;SDS011;18016;49.788;8.742;2023-03-04T14:01:24;41.80;;;17.30;;
31384;SDS011;18016;49.788;8.742;2023-03-04T14:03:50;50.72;;;18.63;;
31384;SDS011;18016;49.788;8.742;2023-03-04T14:06:17;42.63;;;15.90;;
31384;SDS011;18016;49.788;8.742;2023-03-04T14:08:43;35.50;;;14.75;;
31384;SDS011;18016;49.788;8.742;2023-03-04T14:11:13;35.38;;;15.75;;
31384;SDS011;18016;49.788;8.742;2023-03-04T14:13:39;40.58;;;17.73;;
31384;SDS011;18016;49.788;8.742;2023-03-04T14:16:05;37.85;;;15.10;;
31384;SDS011;18016;49.788;8.742;2023-03-04T14:18:30;37.45;;;15.40;;
31384;SDS011;18016;49.788;8.742;2023-03-04T14:20:55;36.20;;;14.30;;
31384;SDS011;18016;49.788;8.742;2023-03-04T14:23:30;39.60;;;15.18;;
31384;SDS011;18016;49.788;8.742;2023-03-04T14:26:02;31.58;;;15.45;;
31384;SDS011;18016;49.788;8.742;2023-03-04T14:28:28;44.17;;;14.10;;
31384;SDS011;18016;49.788;8.742;2023-03-04T14:30:54;49.87;;;14.17;;
31384;SDS011;18016;49.788;8.742;2023-03-04T14:33:21;35.05;;;13.40;;
31384;SDS011;18016;49.788;8.742;2023-03-04T14:35:48;32.97;;;13.73;;
31384;SDS011;18016;49.788;8.742;2023-03-04T14:40:47;28.50;;;13.45;;
31384;SDS011;18016;49.788;8.742;2023-03-04T14:43:19;28.35;;;12.57;;
31384;SDS011;18016;49.788;8.742;2023-03-04T14:45:45;31.10;;;12.30;;
31384;SDS011;18016;49.788;8.742;2023-03-04T14:48:34;34.90;;;14.63;;
31384;SDS011;18016;49.788;8.742;2023-03-04T14:50:59;26.88;;;13.00;;
31384;SDS011;18016;49.788;8.742;2023-03-04T14:53:25;29.25;;;13.43;;
31384;SDS011;18016;49.788;8.742;2023-03-04T14:55:55;33.70;;;13.50;;
31384;SDS011;18016;49.788;8.742;2023-03-04T14:58:22;29.98;;;14.27;;
31384;SDS011;18016;49.788;8.742;2023-03-04T15:00:48;31.33;;;13.65;;
31384;SDS011;18016;49.788;8.742;2023-03-04T15:05:41;39.40;;;14.60;;
31384;SDS011;18016;49.788;8.742;2023-03-04T15:10:41;48.65;;;19.13;;
31384;SDS011;18016;49.788;8.742;2023-03-04T15:13:07;35.47;;;17.63;;
31384;SDS011;18016;49.788;8.742;2023-03-04T15:15:40;43.05;;;19.13;;
31384;SDS011;18016;49.788;8.742;2023-03-04T15:18:23;39.20;;;16.13;;
31384;SDS011;18016;49.788;8.742;2023-03-04T15:20:53;38.72;;;16.67;;
31384;SDS011;18016;49.788;8.742;2023-03-04T15:23:19;42.15;;;17.77;;
31384;SDS011;18016;49.788;8.742;2023-03-04T15:25:44;41.40;;;17.27;;
31384;SDS011;18016;49.788;8.742;2023-03-04T15:28:16;35.22;;;16.88;;
31384;SDS011;18016;49.788;8.742;2023-03-04T15:30:41;39.13;;;17.65;;
31384;SDS011;18016;49.788;8.742;2023-03-04T15:33:09;38.42;;;17.95;;
31384;SDS011;18016;49.788;8.742;2023-03-04T15:35:34;42.25;;;18.15;;
31384;SDS011;18016;49.788;8.742;2023-03-04T15:37:59;37.95;;;16.88;;
31384;SDS011;18016;49.788;8.742;2023-03-04T15:40:30;42.15;;;17.48;;
31384;SDS011;18016;49.788;8.742;2023-03-04T15:42:56;35.97;;;17.02;;
31384;SDS011;18016;49.788;8.742;2023-03-04T15:45:23;44.60;;;17.08;;
31384;SDS011;18016;49.788;8.742;2023-03-04T15:47:50;38.45;;;16.98;;
31384;SDS011;18016;49.788;8.742;2023-03-04T15:50:15;38.35;;;16.17;;
31384;SDS011;18016;49.788;8.742;2023-03-04T15:52:41;36.22;;;15.55;;
31384;SDS011;18016;49.788;8.742;2023-03-04T15:55:06;29.48;;;13.93;;
31384;SDS011;18016;49.788;8.742;2023-03-04T15:57:32;38.25;;;15.13;;
31384;SDS011;18016;49.788;8.742;2023-03-04T15:59:57;39.63;;;16.88;;
31384;SDS011;18016;49.788;8.742;2023-03-04T16:02:24;36.35;;;14.60;;
31384;SDS011;18016;49.788;8.742;2023-03-04T16:04:51;33.95;;;15.38;;
31384;SDS011;18016;49.788;8.742;2023-03-04T16:07:17;30.98;;;12.93;;
31384;SDS011;18016;49.788;8.742;2023-03-04T16:09:42;36.45;;;13.82;;
31384;SDS011;18016;49.788;8.742;2023-03-04T16:12:09;34.35;;;13.55;;
31384;SDS011;18016;49.788;8.742;2023-03-04T16:14:34;33.38;;;14.23;;
31384;SDS011;18016;49.788;8.742;2023-03-04T16:17:00;31.73;;;13.30;;
31384;SDS011;18016;49.788;8.742;2023-03-04T16:19:25;29.42;;;13.55;;
31384;SDS011;18016;49.788;8.742;2023-03-04T16:21:50;30.87;;;13.80;;
31384;SDS011;18016;49.788;8.742;2023-03-04T16:24:16;30.08;;;12.75;;
31384;SDS011;18016;49.788;8.742;2023-03-04T16:26:42;27.80;;;13.23;;
31384;SDS011;18016;49.788;8.742;2023-03-04T16:29:07;36.70;;;15.00;;
31384;SDS011;18016;49.788;8.742;2023-03-04T16:31:33;31.77;;;14.75;;
31384;SDS011;18016;49.788;8.742;2023-03-04T16:33:59;40.63;;;14.77;;
31384;SDS011;18016;49.788;8.742;2023-03-04T16:36:24;39.35;;;16.48;;
31384;SDS011;18016;49.788;8.742;2023-03-04T16:38:51;26.67;;;14.40;;
31384;SDS011;18016;49.788;8.742;2023-03-04T16:41:19;37.50;;;15.02;;
31384;SDS011;18016;49.788;8.742;2023-03-04T16:43:46;36.65;;;14.25;;
31384;SDS011;18016;49.788;8.742;2023-03-04T16:46:12;38.80;;;15.33;;